Time;durP1;ratioP1;P1;durP2;ratioP2;P2;SDS_P1;SDS_P2;PMS_P1;PMS_P2;Temp;Humidity;BMP_temperature;BMP_pressure;BME280_temperature;BME280_humidity;BME280_pressure;Samples;Min_cycle;Max_cycle;Signal;HPM_P1;HPM_P2
2023/07/10 00:02:38;;;;;;;11.82;7.25;;;;;;;;;;10460548;28;20295;-81
2023/07/10 00:08:00;;;;;;;7.35;6.28;;;;;;;;;;10481577;28;20420;-82
2023/07/10 00:13:21;;;;;;;10.32;6.88;;;;;;;;;;10466935;28;20418;-81
2023/07/10 00:18:43;;;;;;;8.65;6.32;;;;;;;;;;10447320;28;20208;-82
2023/07/10 00:24:05;;;;;;;8.50;5.78;;;;;;;;;;10447687;28;20250;-82
2023/07/10 00:29:31;;;;;;;7.95;5.97;;;;;;;;;;10452680;28;20531;-82
2023/07/10 00:34:54;;;;;;;7.72;5.63;;;;;;;;;;10459623;28;20243;-82
2023/07/10 00:40:22;;;;;;;8.10;5.60;;;;;;;;;;10424952;28;20219;-81
2023/07/10 00:45:44;;;;;;;9.18;5.68;;;;;;;;;;10470105;28;20196;-83
2023/07/10 00:51:09;;;;;;;8.63;5.95;;;;;;;;;;10473821;28;20258;-88
2023/07/10 00:56:39;;;;;;;7.28;5.43;;;;;;;;;;10479802;28;20203;-91
2023/07/10 01:02:13;;;;;;;8.25;5.80;;;;;;;;;;10461621;28;20471;-89
2023/07/10 01:07:46;;;;;;;7.97;5.85;;;;;;;;;;10474909;28;20218;-82
2023/07/10 01:13:08;;;;;;;9.65;6.13;;;;;;;;;;10464868;28;20289;-87
2023/07/10 01:18:29;;;;;;;7.00;5.85;;;;;;;;;;10465062;28;20199;-82
2023/07/10 01:23:52;;;;;;;7.63;5.53;;;18.90;99.90;;;;;;10454967;28;20243;-82
2023/07/10 01:29:33;;;;;;;9.52;6.40;;;18.90;99.90;;;;;;10445887;28;20267;-87
2023/07/10 01:34:59;;;;;;;6.28;5.28;;;18.60;99.90;;;;;;10485042;28;20235;-87
2023/07/10 01:40:28;;;;;;;8.90;5.75;;;18.50;1.00;;;;;;10450591;28;20242;-85
2023/07/10 01:45:49;;;;;;;7.25;5.45;;;18.30;1.00;;;;;;10436811;28;20564;-87
2023/07/10 01:51:13;;;;;;;8.68;6.40;;;18.30;1.00;;;;;;10422659;28;20315;-82
2023/07/10 01:56:35;;;;;;;9.00;5.68;;;18.20;1.00;;;;;;10444966;28;20541;-83
2023/07/10 02:01:58;;;;;;;8.02;5.70;;;18.10;1.00;;;;;;10466880;28;20206;-82
2023/07/10 02:07:20;;;;;;;7.05;5.20;;;18.10;1.00;;;;;;10457931;28;20211;-84
2023/07/10 02:12:42;;;;;;;6.13;5.38;;;18.00;1.00;;;;;;10477016;28;20235;-84
2023/07/10 02:18:03;;;;;;;8.63;5.43;;;18.00;1.00;;;;;;10477923;28;20192;-83
2023/07/10 02:23:25;;;;;;;12.43;5.90;;;17.90;1.00;;;;;;10417512;28;20207;-86
2023/07/10 02:28:46;;;;;;;7.00;5.13;;;17.90;1.00;;;;;;10421820;28;20385;-85
2023/07/10 02:34:07;;;;;;;10.50;6.45;;;17.90;1.00;;;;;;10460991;28;20310;-90
2023/07/10 02:39:29;;;;;;;12.38;8.05;;;17.90;1.00;;;;;;10455332;28;20275;-86
2023/07/10 02:44:51;;;;;;;11.23;7.35;;;;;;;;;;10459931;28;20195;-89
2023/07/10 02:50:12;;;;;;;8.77;6.93;;;18.20;16.60;;;;;;10469241;28;20236;-89
2023/07/10 02:55:33;;;;;;;11.85;6.60;;;17.90;1.00;;;;;;10462277;28;20296;-88
2023/07/10 03:00:57;;;;;;;6.63;5.63;;;18.00;1.00;;;;;;10462339;28;20323;-80
2023/07/10 03:06:20;;;;;;;8.55;6.28;;;18.00;99.90;;;;;;10475358;28;20210;-85
2023/07/10 03:11:42;;;;;;;9.27;6.53;;;18.10;99.90;;;;;;10476021;28;20216;-83
2023/07/10 03:17:04;;;;;;;8.85;6.28;;;18.20;87.50;;;;;;10447989;28;20202;-89
2023/07/10 03:22:25;;;;;;;11.70;6.82;;;18.30;1.00;;;;;;10485540;28;20209;-85
2023/07/10 03:27:48;;;;;;;9.32;7.38;;;18.40;72.60;;;;;;10483877;28;20195;-86
2023/07/10 03:33:14;;;;;;;8.90;6.60;;;18.40;1.00;;;;;;10483396;28;20215;-86
2023/07/10 03:38:35;;;;;;;7.97;6.20;;;18.60;1.00;;;;;;10471481;28;20204;-84
2023/07/10 03:43:57;;;;;;;8.98;6.07;;;18.70;1.00;;;;;;10484284;28;20490;-82
2023/07/10 03:49:18;;;;;;;9.63;6.60;;;18.80;1.00;;;;;;10453557;28;20421;-84
2023/07/10 03:54:39;;;;;;;7.43;6.22;;;18.90;1.00;;;;;;10455773;28;20231;-84
2023/07/10 04:00:01;;;;;;;8.98;6.45;;;18.90;99.90;;;;;;10427184;28;20200;-86
2023/07/10 04:05:34;;;;;;;9.82;6.32;;;18.90;1.00;;;;;;10428759;28;20438;-89
2023/07/10 04:10:58;;;;;;;7.90;5.60;;;18.90;1.00;;;;;;10430003;28;20199;-80
2023/07/10 04:16:23;;;;;;;10.10;6.15;;;18.90;1.00;;;;;;10482370;28;20263;-82
2023/07/10 04:21:44;;;;;;;7.70;5.40;;;19.10;1.00;;;;;;10436420;28;20251;-87
2023/07/10 04:27:06;;;;;;;7.95;5.13;;;19.10;1.00;;;;;;10446499;28;20242;-89
2023/07/10 04:32:27;;;;;;;7.15;5.55;;;19.30;1.00;;;;;;10479676;28;20394;-89
2023/07/10 04:37:48;;;;;;;8.75;6.40;;;19.40;1.00;;;;;;10444211;28;20223;-87
2023/07/10 04:43:09;;;;;;;10.52;6.85;;;19.40;99.90;;;;;;10463360;28;20403;-86
2023/07/10 04:48:31;;;;;;;7.82;5.20;;;19.30;1.00;;;;;;10460934;28;20287;-85
2023/07/10 04:53:53;;;;;;;9.68;5.43;;;19.40;1.00;;;;;;10439127;28;20224;-82
2023/07/10 04:59:14;;;;;;;6.80;5.18;;;19.40;1.00;;;;;;10439408;28;20215;-83
2023/07/10 05:04:35;;;;;;;8.77;4.95;;;19.40;99.90;;;;;;10439556;28;20227;-84
2023/07/10 05:09:57;;;;;;;6.78;4.55;;;19.50;99.90;;;;;;10425341;28;20216;-85
2023/07/10 05:15:19;;;;;;;7.70;3.67;;;19.60;1.00;;;;;;10464743;28;20429;-91
2023/07/10 05:20:44;;;;;;;3.67;3.28;;;19.80;1.00;;;;;;10479413;28;20199;-87
2023/07/10 05:26:11;;;;;;;5.20;3.13;;;19.90;1.00;;;;;;10440036;28;20204;-88
2023/07/10 05:31:33;;;;;;;3.85;2.63;;;20.30;1.00;;;;;;10423390;28;20291;-84
2023/07/10 05:36:54;;;;;;;5.28;3.17;;;20.50;1.00;;;;;;10465961;28;20253;-85
2023/07/10 05:42:15;;;;;;;7.78;3.40;;;20.60;1.00;;;;;;10485943;28;20263;-81
2023/07/10 05:47:36;;;;;;;3.33;2.60;;;20.60;1.00;;;;;;10484192;28;20211;-81
2023/07/10 05:52:58;;;;;;;12.15;3.83;;;20.70;1.00;;;;;;10437856;28;20240;-80
2023/07/10 05:58:22;;;;;;;4.82;3.35;;;20.60;1.00;;;;;;10454353;28;20197;-83
2023/07/10 06:03:43;;;;;;;5.00;3.38;;;20.70;1.00;;;;;;10465159;28;20527;-83
2023/07/10 06:09:04;;;;;;;3.97;2.67;;;20.90;1.00;;;;;;10471466;28;20490;-82
2023/07/10 06:14:26;;;;;;;4.47;2.10;;;21.00;1.00;;;;;;10439632;28;20228;-83
2023/07/10 06:19:48;;;;;;;3.53;2.38;;;21.20;99.90;;;;;;10440721;28;20199;-87
2023/07/10 06:25:10;;;;;;;2.33;2.00;;;21.20;99.90;;;;;;10446361;28;20208;-83
2023/07/10 06:30:32;;;;;;;9.48;2.50;;;21.30;99.90;;;;;;10436657;28;20188;-83
2023/07/10 06:35:54;;;;;;;5.07;2.45;;;21.70;99.90;;;;;;10482123;28;20223;-82
2023/07/10 06:41:16;;;;;;;4.85;2.60;;;22.10;99.90;;;;;;10450019;28;20435;-84
2023/07/10 06:46:37;;;;;;;9.27;2.05;;;22.60;99.90;;;;;;10421434;28;20297;-84
2023/07/10 06:51:59;;;;;;;6.05;2.50;;;22.80;99.90;;;;;;10420902;28;20268;-84
2023/07/10 06:57:20;;;;;;;3.90;2.35;;;23.30;99.90;;;;;;10415291;28;20199;-78
2023/07/10 07:02:42;;;;;;;6.15;2.38;;;24.00;99.90;;;;;;10453947;28;20226;-83
2023/07/10 07:08:03;;;;;;;4.18;2.13;;;24.70;99.90;;;;;;10456395;28;20292;-80
2023/07/10 07:13:25;;;;;;;6.32;2.47;;;25.20;99.90;;;;;;10482742;28;20265;-82
2023/07/10 07:18:46;;;;;;;4.35;2.45;;;25.40;99.90;;;;;;10455657;28;20265;-83
2023/07/10 07:24:08;;;;;;;2.97;2.38;;;26.00;99.90;;;;;;10461359;28;20192;-86
2023/07/10 07:29:30;;;;;;;2.72;2.00;;;26.40;99.90;;;;;;10454793;28;20242;-86
2023/07/10 07:34:52;;;;;;;7.03;2.35;;;26.80;99.90;;;;;;10501248;28;20234;-83
2023/07/10 07:40:16;;;;;;;3.10;2.38;;;27.40;99.90;;;;;;10421937;28;20736;-82
2023/07/10 07:45:37;;;;;;;2.78;2.22;;;27.60;99.90;;;;;;10433335;28;20267;-80
2023/07/10 07:51:04;;;;;;;2.58;2.15;;;27.50;99.90;;;;;;10462338;28;20310;-82
2023/07/10 07:56:25;;;;;;;3.20;2.33;;;27.60;99.90;;;;;;10441958;28;20208;-84
2023/07/10 08:01:47;;;;;;;7.70;2.28;;;28.10;99.90;;;;;;10471119;28;20202;-88
2023/07/10 08:07:09;;;;;;;4.00;1.90;;;28.30;99.90;;;;;;10459365;28;20520;-83
2023/07/10 08:12:30;;;;;;;4.97;2.17;;;28.60;99.90;;;;;;10515676;28;20281;-84
2023/07/10 08:17:51;;;;;;;3.88;2.03;;;28.80;99.90;;;;;;10460977;28;20218;-81
2023/07/10 08:23:12;;;;;;;3.00;1.88;;;28.90;99.90;;;;;;10456705;28;20552;-88
2023/07/10 08:28:34;;;;;;;3.42;1.98;;;28.90;99.90;;;;;;10428110;28;20192;-82
2023/07/10 08:33:55;;;;;;;2.10;1.90;;;29.00;99.90;;;;;;10461886;28;20285;-84
2023/07/10 08:39:17;;;;;;;2.75;1.90;;;29.00;99.90;;;;;;10460406;28;20304;-83
2023/07/10 08:44:39;;;;;;;3.17;1.80;;;29.00;99.90;;;;;;10470011;28;20200;-82
2023/07/10 08:50:16;;;;;;;2.45;1.95;;;29.10;99.90;;;;;;10419238;28;20897;-81
2023/07/10 08:56:02;;;;;;;3.80;2.03;;;29.70;99.90;;;;;;10430983;28;20265;-83
2023/07/10 09:01:41;;;;;;;2.58;1.85;;;29.90;99.90;;;;;;10473945;28;20211;-83
2023/07/10 09:07:03;;;;;;;3.42;1.80;;;30.30;99.90;;;;;;10473958;28;20227;-86
2023/07/10 09:12:35;;;;;;;3.35;1.65;;;30.20;99.90;;;;;;10496262;28;20261;-87
2023/07/10 09:18:21;;;;;;;1.60;1.50;;;30.50;99.90;;;;;;10460469;28;20208;-84
2023/07/10 09:23:43;;;;;;;5.22;2.38;;;30.90;99.90;;;;;;10457918;28;20262;-84
2023/07/10 09:29:11;;;;;;;3.25;1.38;;;31.70;99.90;;;;;;10456766;28;20204;-86
2023/07/10 09:34:34;;;;;;;6.68;1.90;;;31.50;99.90;;;;;;10457088;28;20231;-85
2023/07/10 09:39:55;;;;;;;3.40;1.70;;;31.00;99.90;;;;;;10453338;28;20208;-83
2023/07/10 09:45:16;;;;;;;2.38;1.70;;;31.40;99.90;;;;;;10432915;28;20199;-84
2023/07/10 09:50:38;;;;;;;2.53;2.00;;;31.00;99.90;;;;;;10403640;28;20244;-83
2023/07/10 09:56:00;;;;;;;5.18;2.05;;;30.60;99.90;;;;;;10434767;28;20246;-80
2023/07/10 10:01:30;;;;;;;3.55;1.60;;;29.80;99.90;;;;;;10447057;28;20208;-85
2023/07/10 10:07:02;;;;;;;3.25;1.60;;;29.60;99.90;;;;;;10416921;28;20390;-83
2023/07/10 10:12:27;;;;;;;2.45;2.00;;;29.50;99.90;;;;;;10487751;28;20215;-82
2023/07/10 10:17:50;;;;;;;1.70;1.60;;;29.20;99.90;;;;;;10484968;28;20252;-83
2023/07/10 10:23:38;;;;;;;2.60;1.70;;;29.30;99.90;;;;;;10466007;28;20230;-82
2023/07/10 10:29:17;;;;;;;1.77;1.55;;;29.10;99.90;;;;;;10439096;28;20241;-84
2023/07/10 10:35:13;;;;;;;2.33;1.70;;;28.90;99.90;;;;;;10456767;28;20238;-82
2023/07/10 10:40:46;;;;;;;2.90;1.90;;;29.50;99.90;;;;;;10417070;28;20196;-84
2023/07/10 10:46:22;;;;;;;2.63;1.60;;;30.50;99.90;;;;;;10456178;28;20203;-84
2023/07/10 10:52:12;;;;;;;1.85;1.60;;;30.70;99.90;;;;;;10457224;28;20609;-84
2023/07/10 10:58:04;;;;;;;4.63;2.00;;;30.40;99.90;;;;;;10436451;28;20502;-86
2023/07/10 11:03:35;;;;;;;1.98;1.60;;;30.20;99.90;;;;;;10432967;28;20216;-82
2023/07/10 11:09:03;;;;;;;3.13;2.00;;;30.00;99.90;;;;;;10438673;28;20268;-80
2023/07/10 11:14:25;;;;;;;3.00;1.73;;;30.10;99.90;;;;;;10433702;28;20238;-81
2023/07/10 11:19:48;;;;;;;3.90;1.98;;;30.00;99.90;;;;;;10470721;28;20291;-82
2023/07/10 11:25:27;;;;;;;2.35;1.40;;;30.00;99.90;;;;;;10491565;28;20237;-86
2023/07/10 11:31:18;;;;;;;4.35;1.63;;;30.20;99.90;;;;;;10450166;28;20236;-82
2023/07/10 11:36:41;;;;;;;2.00;1.52;;;30.00;99.90;;;;;;10452583;28;20227;-81
2023/07/10 11:42:03;;;;;;;4.93;1.73;;;30.10;99.90;;;;;;10475933;28;20206;-85
2023/07/10 11:47:29;;;;;;;2.25;1.85;;;30.10;99.90;;;;;;10468239;28;20383;-82
2023/07/10 11:53:21;;;;;;;7.55;1.70;;;30.00;99.90;;;;;;10477926;28;20258;-81
2023/07/10 11:58:42;;;;;;;3.10;2.25;;;29.90;99.90;;;;;;10451387;28;20250;-81
2023/07/10 12:04:13;;;;;;;2.90;2.20;;;29.70;99.90;;;;;;10454054;28;20545;-79
2023/07/10 12:09:35;;;;;;;5.47;2.20;;;29.40;99.90;;;;;;10498191;28;20203;-79
2023/07/10 12:14:59;;;;;;;4.65;2.20;;;29.20;99.90;;;;;;10456260;28;20580;-87
2023/07/10 12:20:32;;;;;;;3.00;1.83;;;29.10;99.90;;;;;;10447373;28;20196;-79
2023/07/10 12:25:55;;;;;;;3.53;1.83;;;29.10;99.90;;;;;;10448473;28;20208;-80
2023/07/10 12:31:17;;;;;;;3.88;1.83;;;29.00;99.90;;;;;;10474426;28;20271;-78
2023/07/10 12:36:39;;;;;;;4.72;1.67;;;28.70;99.90;;;;;;10464921;28;20214;-79
2023/07/10 12:42:01;;;;;;;3.47;1.90;;;28.40;99.90;;;;;;10439010;28;20195;-84
2023/07/10 12:47:22;;;;;;;7.38;1.70;;;28.10;99.90;;;;;;10455613;28;20203;-80
2023/07/10 12:52:43;;;;;;;4.25;2.00;;;27.90;93.20;;;;;;10498396;28;20246;-80
2023/07/10 12:58:07;;;;;;;2.70;1.73;;;27.50;99.90;;;;;;10467877;28;20226;-80
2023/07/10 13:03:30;;;;;;;5.88;1.92;;;27.60;99.90;;;;;;10481992;28;20194;-80
2023/07/10 13:08:56;;;;;;;5.70;1.95;;;27.70;99.90;;;;;;10420019;28;20266;-80
2023/07/10 13:14:29;;;;;;;1.60;1.50;;;28.10;99.90;;;;;;10435507;28;20247;-82
2023/07/10 13:19:51;;;;;;;2.88;1.70;;;28.30;99.90;;;;;;10450214;28;20200;-80
2023/07/10 13:25:25;;;;;;;3.80;1.60;;;28.40;99.90;;;;;;10431056;28;20269;-81
2023/07/10 13:30:47;;;;;;;3.08;2.00;;;28.40;99.90;;;;;;10427346;28;20220;-78
2023/07/10 13:36:18;;;;;;;1.70;1.60;;;28.50;99.90;;;;;;10451091;28;20228;-79
2023/07/10 13:41:39;;;;;;;4.35;1.73;;;28.30;99.90;;;;;;10447904;28;20205;-82
2023/07/10 13:47:00;;;;;;;2.38;1.42;;;28.00;99.90;;;;;;10461808;28;20188;-80
2023/07/10 13:52:25;;;;;;;3.08;1.50;;;28.10;99.90;;;;;;10431340;28;20240;-88
2023/07/10 13:57:46;;;;;;;6.43;2.10;;;28.00;99.90;;;;;;10414121;28;20193;-85
2023/07/10 14:03:12;;;;;;;5.65;2.03;;;27.90;99.90;;;;;;10447060;28;20386;-78
2023/07/10 14:08:33;;;;;;;4.43;2.17;;;27.80;99.90;;;;;;10413113;28;20208;-82
2023/07/10 14:13:55;;;;;;;5.65;2.28;;;27.50;99.90;;;;;;10418373;28;20231;-81
2023/07/10 14:19:18;;;;;;;3.00;1.88;;;27.40;99.90;;;;;;10444344;28;20245;-89
2023/07/10 14:24:39;;;;;;;4.60;1.85;;;27.40;99.90;;;;;;10416441;28;20580;-80
2023/07/10 14:30:00;;;;;;;3.65;1.83;;;27.30;99.90;;;;;;10439676;28;20251;-79
2023/07/10 14:35:21;;;;;;;4.43;1.80;;;27.00;99.90;;;;;;10443499;28;20239;-84
2023/07/10 14:40:43;;;;;;;1.58;1.45;;;26.70;99.90;;;;;;10432185;28;20872;-81
2023/07/10 14:46:10;;;;;;;15.05;12.77;;;26.40;99.90;;;;;;10446700;28;20545;-80
2023/07/10 14:51:32;;;;;;;3.67;2.10;;;26.30;99.90;;;;;;10448231;28;20235;-80
2023/07/10 14:56:53;;;;;;;4.10;1.80;;;26.20;99.90;;;;;;10442518;28;20457;-78
2023/07/10 15:02:19;;;;;;;1.80;1.35;;;26.10;99.90;;;;;;10441836;28;20479;-81
2023/07/10 15:07:43;;;;;;;5.72;1.77;;;25.90;99.90;;;;;;10393415;28;20208;-78
2023/07/10 15:13:15;;;;;;;2.25;1.60;;;25.60;99.90;;;;;;10409488;28;20291;-77
2023/07/10 15:18:37;;;;;;;3.78;1.60;;;25.30;99.90;;;;;;10442068;28;20198;-77
2023/07/10 15:23:58;;;;;;;6.03;2.10;;;25.00;99.90;;;;;;10473855;28;20514;-77
2023/07/10 15:29:20;;;;;;;2.03;1.70;;;24.60;99.90;;;;;;10469708;28;20201;-78
2023/07/10 15:34:43;;;;;;;3.75;1.90;;;24.60;99.90;;;;;;10433248;28;20235;-80
2023/07/10 15:40:09;;;;;;;8.02;3.20;;;24.50;99.90;;;;;;10435058;28;20598;-78
2023/07/10 15:45:31;;;;;;;3.55;2.22;;;24.50;99.90;;;;;;10442144;28;20188;-83
2023/07/10 15:50:55;;;;;;;2.13;1.73;;;24.40;99.90;;;;;;10441656;28;20414;-79
2023/07/10 15:56:16;;;;;;;6.78;1.92;;;24.30;99.90;;;;;;10412891;28;20530;-78
2023/07/10 16:01:38;;;;;;;2.55;1.92;;;24.30;99.90;;;;;;10400133;28;20201;-78
2023/07/10 16:07:00;;;;;;;2.95;2.28;;;24.20;99.90;;;;;;10398860;28;20201;-79
2023/07/10 16:12:21;;;;;;;4.28;1.58;;;24.40;99.90;;;;;;10414865;28;20197;-78
2023/07/10 16:17:44;;;;;;;5.40;1.73;;;24.40;99.90;;;;;;10438349;28;20208;-79
2023/07/10 16:23:06;;;;;;;2.80;1.52;;;24.30;99.90;;;;;;10480483;28;20206;-78
2023/07/10 16:28:28;;;;;;;2.35;1.50;;;24.10;99.90;;;;;;10476661;28;20435;-77
2023/07/10 16:33:49;;;;;;;3.67;1.58;;;23.90;99.90;;;;;;10426493;28;20224;-77
2023/07/10 16:39:11;;;;;;;1.58;1.33;;;23.80;99.90;;;;;;10417552;28;20205;-80
2023/07/10 16:44:32;;;;;;;3.25;1.85;;;23.80;99.90;;;;;;10398766;28;20193;-77
2023/07/10 16:49:54;;;;;;;6.95;1.88;;;23.70;99.90;;;;;;10410089;28;20236;-77
2023/07/10 16:55:21;;;;;;;2.25;1.75;;;23.70;99.90;;;;;;10444611;28;20259;-78
2023/07/10 17:00:42;;;;;;;2.08;1.50;;;23.60;99.90;;;;;;10439061;28;20212;-77
2023/07/10 17:06:04;;;;;;;5.38;1.90;;;23.60;99.90;;;;;;10433671;28;20205;-78
2023/07/10 17:11:30;;;;;;;2.97;2.40;;;23.50;99.90;;;;;;10428969;28;20211;-82
2023/07/10 17:16:51;;;;;;;5.00;2.38;;;23.40;99.90;;;;;;10398403;28;20248;-78
2023/07/10 17:22:27;;;;;;;4.57;2.40;;;23.40;99.90;;;;;;10427248;28;20207;-77
2023/07/10 17:27:50;;;;;;;2.13;1.52;;;23.30;99.90;;;;;;10430643;28;20204;-78
2023/07/10 17:33:23;;;;;;;1.50;1.40;;;23.20;99.90;;;;;;10436263;28;20291;-79
2023/07/10 17:38:45;;;;;;;3.22;2.30;;;23.20;99.90;;;;;;10437263;28;20196;-80
2023/07/10 17:44:27;;;;;;;2.92;2.30;;;23.20;99.90;;;;;;10411915;28;20231;-79
2023/07/10 17:49:48;;;;;;;6.40;2.38;;;23.10;99.90;;;;;;10396008;28;20303;-78
2023/07/10 17:55:17;;;;;;;4.00;2.40;;;23.00;99.90;;;;;;10395916;28;20511;-78
2023/07/10 18:00:39;;;;;;;2.67;1.85;;;23.00;99.90;;;;;;10427963;28;20207;-86
2023/07/10 18:06:00;;;;;;;5.20;2.40;;;22.90;99.90;;;;;;10437367;28;20200;-82
2023/07/10 18:11:29;;;;;;;2.67;1.85;;;22.80;99.90;;;;;;10432307;28;20357;-89
2023/07/10 18:16:51;;;;;;;2.10;1.75;;;;;;;;;;10413327;28;20225;-79
2023/07/10 18:22:13;;;;;;;4.45;2.47;;;;;;;;;;10415629;28;20200;-78
2023/07/10 18:27:34;;;;;;;4.32;2.33;;;;;;;;;;10407374;28;20408;-80
2023/07/10 18:32:56;;;;;;;6.28;2.70;;;22.50;99.90;;;;;;10433829;28;20429;-80
2023/07/10 18:38:19;;;;;;;2.88;2.42;;;22.40;99.90;;;;;;10435580;28;20196;-77
2023/07/10 18:43:43;;;;;;;6.55;2.75;;;22.40;1.00;;;;;;10407128;28;20514;-77
2023/07/10 18:49:13;;;;;;;4.82;2.40;;;22.30;99.90;;;;;;10430397;28;20248;-77
2023/07/10 18:54:34;;;;;;;8.57;2.65;;;22.10;99.90;;;;;;10443571;28;20339;-77
2023/07/10 18:59:56;;;;;;;7.63;3.05;;;;;;;;;;10402994;28;20196;-78
2023/07/10 19:05:17;;;;;;;4.47;2.58;;;22.00;1.00;;;;;;10405953;28;20314;-78
2023/07/10 19:10:38;;;;;;;4.10;2.47;;;21.90;1.00;;;;;;10402170;28;20197;-83
2023/07/10 19:16:01;;;;;;;2.40;1.50;;;;;;;;;;10431130;28;20235;-78
2023/07/10 19:21:22;;;;;;;2.78;1.63;;;;;;;;;;10452516;28;20487;-78
2023/07/10 19:26:44;;;;;;;3.13;1.60;;;21.60;1.00;;;;;;10484369;28;20192;-78
2023/07/10 19:32:19;;;;;;;2.50;1.70;;;;;;;;;;10444419;28;20546;-79
2023/07/10 19:37:42;;;;;;;3.42;2.10;;;21.40;1.00;;;;;;10426998;28;20220;-77
2023/07/10 19:43:03;;;;;;;3.17;2.20;;;21.20;99.90;;;;;;10440909;28;20291;-77
2023/07/10 19:48:32;;;;;;;3.13;2.35;;;20.90;99.90;;;;;;10423148;28;20200;-77
2023/07/10 19:53:54;;;;;;;2.28;2.08;;;;;;;;;;10440726;28;20275;-77
2023/07/10 19:59:18;;;;;;;2.95;1.98;;;20.60;1.00;;;;;;10454188;28;20276;-77
2023/07/10 20:04:39;;;;;;;2.65;1.73;;;20.50;93.80;;;;;;10439861;28;20207;-76
2023/07/10 20:10:02;;;;;;;3.83;1.77;;;20.20;1.00;;;;;;10441492;28;20203;-79
2023/07/10 20:15:24;;;;;;;3.13;1.75;;;20.10;1.00;;;;;;10431799;28;20234;-78
2023/07/10 20:20:46;;;;;;;2.92;2.47;;;20.00;1.00;;;;;;10482038;28;20191;-78
2023/07/10 20:26:18;;;;;;;6.32;2.60;;;19.90;99.90;;;;;;10481572;28;20266;-77
2023/07/10 20:31:40;;;;;;;4.47;2.15;;;19.80;99.90;;;;;;10443542;28;20197;-78
2023/07/10 20:37:02;;;;;;;3.15;1.92;;;19.50;1.00;;;;;;10428279;28;20221;-78
2023/07/10 20:42:24;;;;;;;2.65;1.92;;;19.30;1.00;;;;;;10388957;28;20243;-81
2023/07/10 20:47:48;;;;;;;2.00;1.70;;;19.30;99.90;;;;;;10398432;28;20204;-78
2023/07/10 20:53:13;;;;;;;3.72;2.05;;;19.40;99.90;;;;;;10398863;28;20279;-80
2023/07/10 20:58:34;;;;;;;2.42;1.70;;;19.50;99.90;;;;;;10413990;28;20197;-78
2023/07/10 21:03:57;;;;;;;4.90;1.95;;;19.30;1.00;;;;;;10406704;28;20283;-82
2023/07/10 21:09:27;;;;;;;2.08;1.80;;;19.20;1.00;;;;;;10423619;28;20271;-78
2023/07/10 21:14:49;;;;;;;2.55;2.20;;;19.20;99.90;;;;;;10423512;28;20232;-78
2023/07/10 21:20:15;;;;;;;4.15;2.13;;;19.10;29.00;;;;;;10464601;28;20223;-80
2023/07/10 21:25:37;;;;;;;1.90;1.70;;;19.00;1.00;;;;;;10478266;28;20204;-80
2023/07/10 21:30:58;;;;;;;4.05;2.90;;;19.10;99.90;;;;;;10449492;28;20212;-76
2023/07/10 21:36:20;;;;;;;8.35;4.10;;;19.00;1.00;;;;;;10437616;28;20408;-77
2023/07/10 21:41:42;;;;;;;6.95;3.40;;;18.90;99.90;;;;;;10437536;28;20184;-77
2023/07/10 21:47:03;;;;;;;4.63;2.80;;;18.90;1.00;;;;;;10431229;28;20232;-76
2023/07/10 21:52:25;;;;;;;2.83;2.08;;;18.80;99.90;;;;;;10436975;28;20238;-78
2023/07/10 21:57:46;;;;;;;5.15;2.35;;;18.70;1.00;;;;;;10436142;28;20223;-80
2023/07/10 22:03:39;;;;;;;3.00;2.05;;;18.60;1.00;;;;;;10403451;28;20201;-78
2023/07/10 22:09:00;;;;;;;3.53;2.25;;;18.50;1.00;;;;;;10432991;28;20203;-77
2023/07/10 22:14:21;;;;;;;2.72;2.17;;;18.50;1.00;;;;;;10431052;28;20230;-81
2023/07/10 22:19:43;;;;;;;8.15;3.50;;;18.50;1.00;;;;;;10432636;28;20208;-79
2023/07/10 22:25:05;;;;;;;3.58;1.90;;;18.40;99.90;;;;;;10431597;28;20440;-80
2023/07/10 22:30:26;;;;;;;4.60;1.85;;;18.20;22.20;;;;;;10431706;28;20216;-77
2023/07/10 22:35:48;;;;;;;2.90;1.85;;;18.10;1.00;;;;;;10432130;28;20242;-77
2023/07/10 22:41:11;;;;;;;3.53;1.70;;;;;;;;;;10415927;28;20220;-86
2023/07/10 22:46:40;;;;;;;3.67;2.05;;;;;;;;;;10430688;28;20216;-81
2023/07/10 22:52:01;;;;;;;5.82;2.90;;;;;;;;;;10435417;28;20236;-78
2023/07/10 22:57:23;;;;;;;5.20;2.50;;;;;;;;;;10434410;28;20302;-77
2023/07/10 23:02:45;;;;;;;2.20;1.70;;;;;;;;;;10419965;28;20553;-77
2023/07/10 23:08:08;;;;;;;3.65;2.60;;;;;;;;;;10404729;28;20209;-78
2023/07/10 23:13:29;;;;;;;3.38;1.65;;;17.80;99.90;;;;;;10442071;28;20211;-77
2023/07/10 23:18:57;;;;;;;2.33;1.90;;;18.10;1.00;;;;;;10393037;28;20205;-80
2023/07/10 23:24:18;;;;;;;2.95;1.63;;;;;;;;;;10412977;28;20201;-77
2023/07/10 23:29:39;;;;;;;3.05;1.88;;;17.90;1.00;;;;;;10404383;28;20205;-82
2023/07/10 23:35:01;;;;;;;1.95;1.75;;;;;;;;;;10440014;28;20589;-78
2023/07/10 23:40:24;;;;;;;2.45;2.08;;;;;;;;;;10401425;28;20193;-78
2023/07/10 23:45:46;;;;;;;2.15;1.85;;;;;;;;;;10403606;28;20251;-80
2023/07/10 23:51:08;;;;;;;2.30;1.70;;;18.00;99.90;;;;;;10402939;28;20550;-77
2023/07/10 23:56:29;;;;;;;2.30;1.63;;;;;;;;;;10413957;28;20288;-79
